New York Mills, Minnesota
Current Conditions -  °F | °C
As of 2:54 AM on Wednesday 26 Nov 2014 (Local Time) from KSAZ Reporting Station
Overcast Overcast  
Wind Chill: 19°   Ceiling: 4900
Heat Index: 19°   Visibility: 10mi
Dew Point: 10°   Wind: 3mph
Humidity: 68%   Direction: 60°ENE
Pressure: 30.05"   Gusts: NA
Location:  46.52°N, 95.38°W
Report Text: KSAZ 260854Z AUTO 06003KT 10SM BKN049 OVC055 M07/M12 A3005 RMK AO2
Loading
Personal Weather Stations






























Interactive Weather Map New forecast layout! Learn more

10-Day Weather Forecast

Advertisements
Track Severe Weather on mobile